• Join FlightAware (Why Join?)
  • Login
  • US Flag 
01:14PM EST


 

Airport Tracker/Info


-or-


 

Live Flight TrackerFlight Track Log ✈ GUG716 ✈ 22-Sep-2013 ✈ MNMG / MGA - MSLP / SAL

Flight Track Log - Related Links

Times and Time Zones

All times are in EDT time to prevent confusion due to time zone crossing. See the GUG716 flight status page for this flight to view local times or setup timezone preferences in your user account.

Time Position Orientation Groundspeed Altitude Reporting Facility
EDT Latitude Longitude Course Direction KTS MPH feet Rate Location/Type
02:32PM 12.4569 -86.8601 295° West  Level Estimated
02:33PM 12.4831 -86.9178 295° West  Level Estimated
02:34PM 12.5093 -86.9756 295° West  Level Estimated
02:35PM 12.5355 -87.0334 295° West  Level Estimated
02:36PM 12.5617 -87.0911 295° West  Level Estimated
02:37PM 12.5878 -87.1489 295° West  Level Estimated
02:38PM 12.6140 -87.2067 295° West  Level Estimated
02:39PM 12.6401 -87.2645 295° West  Level Estimated
02:40PM 12.6663 -87.3223 295° West  Level Estimated
02:41PM 12.6924 -87.3802 295° West  Level Estimated
02:42PM 12.7185 -87.4380 295° West  Level Estimated
02:43PM 12.7445 -87.4958 295° West  Level Estimated
02:44PM 12.7706 -87.5537 295° West  Level Estimated
02:45PM 12.7967 -87.6116 295° West  Level Estimated
02:46PM 12.8227 -87.6695 295° West  Level Estimated
02:47PM 12.8488 -87.7274 295° West  Level Estimated
02:48PM 12.8748 -87.7853 295° West  Level Estimated
02:49PM 12.9008 -87.8432 295° West  Level Estimated
02:50PM 12.9268 -87.9012 295° West  Level Estimated
02:51PM 12.9528 -87.9591 295° West  Level Estimated
02:52PM 12.9787 -88.0171 295° West  Level Estimated
02:53PM 13.0047 -88.0751 295° West  Level Estimated
02:54PM 13.0306 -88.1330 295° West  Level Estimated
02:55PM 13.0566 -88.1910 295° West  Level Estimated
02:56PM 13.0825 -88.2490 295° West  Level Estimated
02:57PM 13.1084 -88.3071 295° West  Level Estimated
02:58PM 13.1343 -88.3651 295° West  Level Estimated
02:59PM 13.1601 -88.4232 295° West  Level Estimated
03:00PM 13.1860 -88.4812 295° West  Level Estimated
03:01PM 13.2119 -88.5393 295° West  Level Estimated
03:02PM 13.2377 -88.5974 295° West  Level Estimated
03:03PM 13.2635 -88.6555 295° West  Level Estimated
03:04PM 13.2893 -88.7136 295° West  Level Estimated
03:05PM 13.3151 -88.7717 295° West  Level Estimated
03:06PM 13.3409 -88.8298 295° West  Level Estimated
03:07PM 13.3667 -88.8880 294° West  Level Estimated
03:08PM 13.3925 -88.9461 294° West  Level Estimated
03:09PM 13.4182 -89.0043 294° West  Level Estimated
03:10PM 13.4410 -89.0557 294° West  Level Estimated
03:11PM 13.4410 -89.0557 147° Southeast  Level Estimated
03:12PM 13.4410 -89.0557 147° Southeast  Level Estimated
03:13PM 13.4410 -89.0557 147° Southeast  Level Estimated
03:14PM 13.4410 -89.0557 147° Southeast  Level Estimated
03:15PM 13.4410 -89.0557 147° Southeast  Level Estimated
03:16PM 13.4410 -89.0557 147° Southeast  Level Estimated
03:17PM 13.4410 -89.0557 147° Southeast  Level Estimated
03:18PM 13.4410 -89.0557 147° Southeast  Level Estimated
03:19PM 13.4410 -89.0557 147° Southeast  Level Estimated
03:20PM 13.4410 -89.0557 147° Southeast  Level Estimated
03:21PM 13.4410 -89.0557 147° Southeast  Level Estimated
03:22PM 13.4410 -89.0557 147° Southeast  Level Estimated
03:23PM 13.4410 -89.0557 147° Southeast  Level Estimated
03:24PM 13.4410 -89.0557 147° Southeast  Level Estimated
03:25PM 13.4410 -89.0557 147° Southeast  Level Estimated
03:26PM 13.4410 -89.0557 147° Southeast  Level Estimated